Time;durP1;ratioP1;P1;durP2;ratioP2;P2;SDS_P1;SDS_P2;PMS_P1;PMS_P2;Temp;Humidity;BMP_temperature;BMP_pressure;BME280_temperature;BME280_humidity;BME280_pressure;Samples;Min_cycle;Max_cycle;Signal;HPM_P1;HPM_P2
2022/07/06 00:00:47;;;;;;;6.07;5.57;;;13.90;99.90;;;;;;5071517;28;20202;-66
2022/07/06 00:03:13;;;;;;;5.73;5.33;;;13.80;99.90;;;;;;5071661;28;20190;-66
2022/07/06 00:05:38;;;;;;;6.87;5.40;;;13.80;99.90;;;;;;5071201;28;20256;-66
2022/07/06 00:08:05;;;;;;;6.33;5.67;;;13.70;99.90;;;;;;5071505;28;20185;-66
2022/07/06 00:10:30;;;;;;;7.33;5.77;;;13.70;99.90;;;;;;5071457;28;20274;-66
2022/07/06 00:12:56;;;;;;;6.07;5.60;;;13.60;99.90;;;;;;5071401;28;20236;-66
2022/07/06 00:15:21;;;;;;;5.87;5.30;;;13.60;99.90;;;;;;5071086;28;20271;-67
2022/07/06 00:17:47;;;;;;;6.20;5.70;;;13.60;99.90;;;;;;5070287;28;20656;-66
2022/07/06 00:20:13;;;;;;;6.20;5.40;;;13.50;99.90;;;;;;5071018;28;20206;-67
2022/07/06 00:22:38;;;;;;;5.70;5.30;;;13.60;99.90;;;;;;5071365;28;20186;-66
2022/07/06 00:25:04;;;;;;;6.50;5.83;;;13.50;99.90;;;;;;5070997;28;20296;-65
2022/07/06 00:27:30;;;;;;;6.87;5.60;;;13.40;99.90;;;;;;5071349;28;20174;-65
2022/07/06 00:29:55;;;;;;;6.30;5.90;;;13.40;99.90;;;;;;5071350;28;20716;-66
2022/07/06 00:32:21;;;;;;;6.80;6.30;;;13.30;99.90;;;;;;5071432;28;20296;-66
2022/07/06 00:34:47;;;;;;;6.03;5.70;;;13.20;99.90;;;;;;5070981;28;20211;-66
2022/07/06 00:37:15;;;;;;;6.30;5.80;;;13.20;99.90;;;;;;5071052;28;20188;-66
2022/07/06 00:39:40;;;;;;;6.10;5.70;;;13.10;99.90;;;;;;5070098;28;20590;-66
2022/07/06 00:42:06;;;;;;;6.60;6.10;;;13.10;99.90;;;;;;5073221;28;20200;-66
2022/07/06 00:44:33;;;;;;;8.77;6.13;;;13.10;99.90;;;;;;5075099;28;20181;-66
2022/07/06 00:46:59;;;;;;;8.70;6.00;;;13.00;99.90;;;;;;5074912;28;20170;-66
2022/07/06 00:52:10;;;;;;;7.13;6.43;;;12.80;99.90;;;;;;5074899;28;20224;-66
2022/07/06 00:54:36;;;;;;;6.83;6.23;;;12.70;99.90;;;;;;5074839;28;20675;-66
2022/07/06 00:57:02;;;;;;;7.00;6.50;;;12.70;99.90;;;;;;5074779;28;20673;-65
2022/07/06 00:59:28;;;;;;;7.10;6.60;;;12.60;99.90;;;;;;5074949;28;20186;-66
2022/07/06 01:01:54;;;;;;;7.00;6.47;;;12.60;99.90;;;;;;5074560;28;20615;-65
2022/07/06 01:04:19;;;;;;;9.77;6.63;;;12.60;99.90;;;;;;5074756;28;20206;-66
2022/07/06 01:06:46;;;;;;;8.83;6.67;;;12.60;99.90;;;;;;5074806;28;20220;-66
2022/07/06 01:09:12;;;;;;;6.83;6.43;;;12.50;99.90;;;;;;5074740;28;20178;-65
2022/07/06 01:11:38;;;;;;;7.63;6.33;;;12.50;99.90;;;;;;5073449;28;20555;-66
2022/07/06 01:14:03;;;;;;;7.30;6.70;;;12.50;99.90;;;;;;5074145;28;20178;-66
2022/07/06 01:16:30;;;;;;;7.53;6.43;;;12.50;99.90;;;;;;5074863;28;20166;-66
2022/07/06 01:18:56;;;;;;;7.10;6.13;;;12.50;99.90;;;;;;5073037;28;20223;-66
2022/07/06 01:21:21;;;;;;;7.07;6.43;;;12.50;99.90;;;;;;5074299;28;20299;-66
2022/07/06 01:23:47;;;;;;;6.97;6.37;;;12.40;99.90;;;;;;5074197;28;20191;-65
2022/07/06 01:26:15;;;;;;;7.27;6.70;;;12.40;99.90;;;;;;5074263;28;20174;-66
2022/07/06 01:28:42;;;;;;;6.10;5.70;;;12.40;99.90;;;;;;5074674;28;20211;-66
2022/07/06 01:31:18;;;;;;;7.27;6.00;;;12.30;99.90;;;;;;5072916;28;20518;-66
2022/07/06 01:33:44;;;;;;;8.70;6.97;;;12.20;99.90;;;;;;5074040;28;20454;-66
2022/07/06 01:36:10;;;;;;;6.77;6.17;;;12.20;99.90;;;;;;5074122;28;20213;-66
2022/07/06 01:38:50;;;;;;;7.87;7.20;;;12.20;99.90;;;;;;5073247;28;20255;-65
2022/07/06 01:41:17;;;;;;;7.50;6.50;;;12.20;99.90;;;;;;5074131;28;20209;-66
2022/07/06 01:43:43;;;;;;;7.80;7.03;;;12.10;99.90;;;;;;5074003;28;20328;-66
2022/07/06 01:46:08;;;;;;;7.53;6.97;;;12.10;99.90;;;;;;5073707;28;20269;-66
2022/07/06 01:48:34;;;;;;;7.37;6.50;;;12.10;99.90;;;;;;5073937;28;20174;-66
2022/07/06 01:51:00;;;;;;;7.47;6.77;;;12.10;99.90;;;;;;5073941;28;20540;-66
2022/07/06 01:53:25;;;;;;;7.60;7.00;;;12.10;99.90;;;;;;5073290;28;20206;-66
2022/07/06 01:55:51;;;;;;;6.97;6.37;;;12.00;99.90;;;;;;5073921;28;20189;-66
2022/07/06 01:58:17;;;;;;;9.50;6.70;;;12.10;99.90;;;;;;5073733;28;20221;-66
2022/07/06 02:00:42;;;;;;;7.03;6.47;;;12.00;99.90;;;;;;5073852;28;20580;-66
2022/07/06 02:03:08;;;;;;;7.53;6.80;;;12.00;99.90;;;;;;5073484;28;20198;-66
2022/07/06 02:05:33;;;;;;;6.97;6.40;;;12.00;99.90;;;;;;5073692;28;20178;-66
2022/07/06 02:07:59;;;;;;;7.07;6.47;;;12.00;99.90;;;;;;5072148;28;20181;-66
2022/07/06 02:10:24;;;;;;;7.17;6.60;;;11.90;99.90;;;;;;5074029;28;20174;-66
2022/07/06 02:12:50;;;;;;;7.10;6.47;;;11.90;99.90;;;;;;5073522;28;20611;-66
2022/07/06 02:15:16;;;;;;;9.13;7.07;;;11.90;99.90;;;;;;5073204;28;20235;-66
2022/07/06 02:17:41;;;;;;;7.10;6.50;;;11.80;99.90;;;;;;5073435;28;20543;-66
2022/07/06 02:20:08;;;;;;;7.17;6.67;;;11.80;99.90;;;;;;5073323;28;20205;-66
2022/07/06 02:22:33;;;;;;;7.70;7.10;;;11.80;99.90;;;;;;5074233;28;20202;-71
2022/07/06 02:24:59;;;;;;;7.27;6.67;;;11.80;99.90;;;;;;5074752;28;20274;-69
2022/07/06 02:27:25;;;;;;;7.43;6.87;;;11.80;99.90;;;;;;5075475;28;20177;-69
2022/07/06 02:29:51;;;;;;;8.53;7.23;;;11.70;99.90;;;;;;5074443;28;20182;-71
2022/07/06 02:32:16;;;;;;;7.30;6.80;;;11.70;99.90;;;;;;5074673;28;20245;-69
2022/07/06 02:34:42;;;;;;;13.67;7.20;;;11.60;99.90;;;;;;5074947;28;20170;-70
2022/07/06 02:37:08;;;;;;;6.97;6.27;;;11.60;99.90;;;;;;5074697;28;20197;-69
2022/07/06 02:39:33;;;;;;;6.63;6.13;;;11.60;99.90;;;;;;5074224;28;20210;-68
2022/07/06 02:41:59;;;;;;;6.47;5.97;;;11.60;99.90;;;;;;5074314;28;20198;-67
2022/07/06 02:44:24;;;;;;;7.40;6.30;;;11.50;99.90;;;;;;5074127;28;20166;-69
2022/07/06 02:46:50;;;;;;;6.60;6.00;;;11.50;99.90;;;;;;5072945;28;20204;-68
2022/07/06 02:49:15;;;;;;;7.03;6.43;;;11.50;99.90;;;;;;5074614;28;20174;-68
2022/07/06 02:51:41;;;;;;;7.30;6.70;;;11.40;99.90;;;;;;5074518;28;20273;-67
2022/07/06 02:54:07;;;;;;;6.80;6.20;;;11.40;99.90;;;;;;5073791;28;20217;-68
2022/07/06 02:56:32;;;;;;;7.30;6.80;;;11.40;99.90;;;;;;5074398;28;20707;-68
2022/07/06 02:58:58;;;;;;;8.90;6.30;;;11.30;99.90;;;;;;5074449;28;20540;-70
2022/07/06 03:01:23;;;;;;;7.23;6.63;;;11.40;99.90;;;;;;5074756;28;20233;-68
2022/07/06 03:03:49;;;;;;;6.67;6.27;;;11.40;99.90;;;;;;5073056;28;20201;-68
2022/07/06 03:06:15;;;;;;;7.70;7.07;;;11.30;99.90;;;;;;5074212;28;20174;-69
2022/07/06 03:08:40;;;;;;;7.27;6.63;;;11.30;99.90;;;;;;5074200;28;20182;-69
2022/07/06 03:11:06;;;;;;;7.10;6.60;;;11.30;99.90;;;;;;5072556;28;20585;-67
2022/07/06 03:13:31;;;;;;;7.30;6.73;;;11.30;99.90;;;;;;5074473;28;20205;-70
2022/07/06 03:15:57;;;;;;;7.17;6.47;;;11.30;99.90;;;;;;5074297;28;20544;-69
2022/07/06 03:18:23;;;;;;;9.73;7.13;;;11.30;99.90;;;;;;5074125;28;20174;-69
2022/07/06 03:20:49;;;;;;;7.17;6.57;;;11.30;99.90;;;;;;5074129;28;20281;-68
2022/07/06 03:23:14;;;;;;;7.67;6.90;;;11.30;99.90;;;;;;5074697;28;20196;-70
2022/07/06 03:25:40;;;;;;;11.73;7.00;;;11.30;99.90;;;;;;5072930;28;20174;-69
2022/07/06 03:28:05;;;;;;;9.57;6.60;;;11.30;99.90;;;;;;5074407;28;20259;-69
2022/07/06 03:30:31;;;;;;;7.53;6.50;;;11.30;99.90;;;;;;5073038;28;20189;-69
2022/07/06 03:32:57;;;;;;;7.77;7.17;;;11.30;99.90;;;;;;5073809;28;20209;-67
2022/07/06 03:35:22;;;;;;;7.53;6.93;;;11.30;99.90;;;;;;5073999;28;20170;-68
2022/07/06 03:37:48;;;;;;;7.80;7.17;;;11.30;99.90;;;;;;5072760;28;20550;-67
2022/07/06 03:40:14;;;;;;;7.27;6.70;;;11.30;99.90;;;;;;5073468;28;20694;-68
2022/07/06 03:42:40;;;;;;;14.97;7.70;;;11.30;99.90;;;;;;5071937;28;20190;-66
2022/07/06 03:45:06;;;;;;;7.80;7.20;;;11.30;99.90;;;;;;5071507;28;20512;-67
2022/07/06 03:47:32;;;;;;;7.87;7.00;;;11.30;99.90;;;;;;5071724;28;20270;-66
2022/07/06 03:49:57;;;;;;;8.77;6.67;;;11.30;99.90;;;;;;5071759;28;20194;-67
2022/07/06 03:52:23;;;;;;;7.57;6.93;;;11.30;99.90;;;;;;5071490;28;20206;-66
2022/07/06 03:54:48;;;;;;;7.53;6.83;;;11.30;99.90;;;;;;5071506;28;20177;-67
2022/07/06 03:57:14;;;;;;;12.53;7.00;;;11.30;99.90;;;;;;5071544;28;20185;-66
2022/07/06 03:59:40;;;;;;;10.87;7.07;;;11.30;99.90;;;;;;5071732;28;20335;-67
2022/07/06 04:02:06;;;;;;;7.77;7.03;;;11.30;99.90;;;;;;5071053;28;20287;-67
2022/07/06 04:04:33;;;;;;;7.80;7.30;;;11.30;99.90;;;;;;5071510;28;20593;-67
2022/07/06 04:06:59;;;;;;;7.87;7.27;;;11.20;99.90;;;;;;5071342;28;20185;-67
2022/07/06 04:09:26;;;;;;;8.17;7.47;;;11.20;99.90;;;;;;5071837;28;20162;-67
2022/07/06 04:11:51;;;;;;;8.17;7.37;;;11.20;99.90;;;;;;5071293;28;20659;-67
2022/07/06 04:14:17;;;;;;;8.17;7.40;;;11.30;99.90;;;;;;5070036;28;20170;-66
2022/07/06 04:16:42;;;;;;;8.53;7.60;;;11.30;99.90;;;;;;5071140;28;20201;-67
2022/07/06 04:19:08;;;;;;;7.33;6.73;;;11.30;99.90;;;;;;5071502;28;20237;-67
2022/07/06 04:21:34;;;;;;;8.20;7.40;;;11.40;99.90;;;;;;5071352;28;20209;-67
2022/07/06 04:23:59;;;;;;;8.47;7.87;;;11.40;99.90;;;;;;5071284;28;20170;-67
2022/07/06 04:26:25;;;;;;;7.77;7.17;;;11.50;99.90;;;;;;5071221;28;20224;-67
2022/07/06 04:28:51;;;;;;;8.00;7.30;;;11.60;99.90;;;;;;5071366;28;20166;-67
2022/07/06 04:31:16;;;;;;;8.67;7.13;;;11.70;99.90;;;;;;5071079;28;20174;-67
2022/07/06 04:33:45;;;;;;;8.33;7.50;;;11.80;99.90;;;;;;5071455;28;20620;-66
2022/07/06 04:36:11;;;;;;;8.23;7.63;;;12.00;99.90;;;;;;5071101;28;20513;-66
2022/07/06 04:38:36;;;;;;;7.83;7.03;;;12.10;99.90;;;;;;5051384;28;20236;-67
2022/07/06 04:41:02;;;;;;;8.30;7.53;;;12.20;99.90;;;;;;5051119;28;20699;-66
2022/07/06 04:43:28;;;;;;;10.50;7.60;;;12.40;99.90;;;;;;5069566;28;20202;-66
2022/07/06 04:45:54;;;;;;;7.63;6.77;;;12.60;99.90;;;;;;5071163;28;20170;-66
2022/07/06 04:48:19;;;;;;;8.67;6.30;;;12.80;99.90;;;;;;5070960;28;20177;-67
2022/07/06 04:50:45;;;;;;;7.60;6.90;;;13.00;99.90;;;;;;5071198;28;20174;-66
2022/07/06 04:53:11;;;;;;;9.73;7.07;;;13.30;99.90;;;;;;5070698;28;20252;-66
2022/07/06 04:55:36;;;;;;;6.87;6.13;;;13.70;99.90;;;;;;5069585;28;20175;-65
2022/07/06 04:58:02;;;;;;;8.10;7.37;;;14.10;99.90;;;;;;5071155;28;20578;-67
2022/07/06 05:00:27;;;;;;;5.87;5.50;;;14.50;99.90;;;;;;5070541;28;20194;-67
2022/07/06 05:02:53;;;;;;;7.43;6.93;;;15.00;99.90;;;;;;5070896;28;20232;-66
2022/07/06 05:05:19;;;;;;;6.63;6.17;;;15.30;99.90;;;;;;5070794;28;20178;-66
2022/07/06 05:07:44;;;;;;;7.10;5.90;;;15.50;99.90;;;;;;5071064;28;20163;-67
2022/07/06 05:10:11;;;;;;;6.83;6.33;;;15.70;99.90;;;;;;5070719;28;20178;-66
2022/07/06 05:12:37;;;;;;;7.30;6.20;;;15.90;99.90;;;;;;5070985;28;20617;-66
2022/07/06 05:15:04;;;;;;;5.90;5.30;;;16.00;99.90;;;;;;5070413;28;20870;-67
2022/07/06 05:17:30;;;;;;;5.53;5.10;;;16.10;99.90;;;;;;5069645;28;20192;-66
2022/07/06 05:19:55;;;;;;;5.60;5.10;;;16.20;99.90;;;;;;5070646;28;20209;-67
2022/07/06 05:22:21;;;;;;;5.03;4.63;;;16.40;99.90;;;;;;5070890;28;20560;-66
2022/07/06 05:24:46;;;;;;;5.70;5.30;;;16.60;99.90;;;;;;5070336;28;20689;-66
2022/07/06 05:27:12;;;;;;;6.13;5.30;;;16.60;99.90;;;;;;5070307;28;20170;-66
2022/07/06 05:29:38;;;;;;;5.33;5.03;;;16.60;99.90;;;;;;5073090;28;20186;-67
2022/07/06 05:32:03;;;;;;;5.67;5.27;;;16.60;99.90;;;;;;5074158;28;20687;-66
2022/07/06 05:34:29;;;;;;;6.03;5.53;;;16.60;99.90;;;;;;5073751;28;20186;-66
2022/07/06 05:36:55;;;;;;;6.33;5.40;;;16.70;99.90;;;;;;5074247;28;20311;-70
2022/07/06 05:39:22;;;;;;;6.43;5.83;;;16.50;99.90;;;;;;5072711;28;20281;-66
2022/07/06 05:41:48;;;;;;;5.83;5.20;;;16.20;99.90;;;;;;5074167;28;20636;-66
2022/07/06 05:44:14;;;;;;;5.70;5.03;;;16.20;99.90;;;;;;5073628;28;20177;-65
2022/07/06 05:46:39;;;;;;;9.00;5.60;;;16.20;99.90;;;;;;5074307;28;20204;-66
2022/07/06 05:51:50;;;;;;;4.80;4.50;;;16.10;99.90;;;;;;5074266;28;20219;-66
2022/07/06 05:54:15;;;;;;;5.10;4.80;;;16.00;99.90;;;;;;5073440;28;20572;-66
2022/07/06 05:56:41;;;;;;;5.63;5.23;;;15.80;99.90;;;;;;5073802;28;20166;-65
2022/07/06 05:59:07;;;;;;;7.90;5.23;;;15.80;99.90;;;;;;5072572;28;20204;-66
2022/07/06 06:01:32;;;;;;;5.53;5.13;;;15.90;99.90;;;;;;5088070;28;20296;-66
2022/07/06 06:03:59;;;;;;;5.50;4.83;;;15.80;99.90;;;;;;5073275;28;20204;-67
2022/07/06 06:06:25;;;;;;;5.40;5.00;;;15.80;99.90;;;;;;5073360;28;20170;-66
2022/07/06 06:08:51;;;;;;;6.30;5.13;;;15.90;99.90;;;;;;5073551;28;20631;-65
2022/07/06 06:11:16;;;;;;;6.07;5.57;;;16.00;99.90;;;;;;5073462;28;20177;-66
2022/07/06 06:13:42;;;;;;;5.17;4.60;;;16.10;99.90;;;;;;5073523;28;20194;-66
2022/07/06 06:16:08;;;;;;;5.80;5.30;;;16.30;99.90;;;;;;5073132;28;20170;-66
2022/07/06 06:18:33;;;;;;;6.00;5.40;;;16.50;99.90;;;;;;5073469;28;20232;-66
2022/07/06 06:20:59;;;;;;;5.80;5.23;;;16.60;99.90;;;;;;5073375;28;20288;-66
2022/07/06 06:23:24;;;;;;;7.83;6.63;;;16.80;99.90;;;;;;5073007;28;20229;-67
2022/07/06 06:25:50;;;;;;;5.23;4.80;;;17.00;99.90;;;;;;5072710;28;20174;-67
2022/07/06 06:28:16;;;;;;;6.13;5.47;;;17.20;99.90;;;;;;5073133;28;20303;-66
2022/07/06 06:30:41;;;;;;;5.37;4.80;;;17.30;99.90;;;;;;5073128;28;20238;-66
2022/07/06 06:33:12;;;;;;;8.63;5.20;;;17.30;99.90;;;;;;5072814;28;20210;-66
2022/07/06 06:35:43;;;;;;;6.00;5.10;;;17.40;99.90;;;;;;5072597;28;20189;-66
2022/07/06 06:38:09;;;;;;;6.23;5.20;;;17.50;99.90;;;;;;5072912;28;20270;-65
2022/07/06 06:40:34;;;;;;;5.00;4.20;;;17.60;99.90;;;;;;5072629;28;20640;-66
2022/07/06 06:43:00;;;;;;;4.80;4.50;;;17.80;99.90;;;;;;5071380;28;20296;-66
2022/07/06 06:45:26;;;;;;;5.10;4.60;;;18.30;99.90;;;;;;5072428;28;20170;-67
2022/07/06 06:47:52;;;;;;;4.60;4.20;;;18.50;99.90;;;;;;5072714;28;20193;-66
2022/07/06 06:50:18;;;;;;;4.67;4.33;;;18.40;99.90;;;;;;5072381;28;20192;-65
2022/07/06 06:52:43;;;;;;;5.13;4.70;;;18.30;99.90;;;;;;5072478;28;20259;-66
2022/07/06 06:55:09;;;;;;;5.27;4.70;;;18.30;99.90;;;;;;5070768;28;20185;-67
2022/07/06 06:57:35;;;;;;;6.23;4.60;;;18.40;99.90;;;;;;5072692;28;20269;-66
2022/07/06 07:00:01;;;;;;;4.87;4.57;;;18.50;99.90;;;;;;5072327;28;20206;-66
2022/07/06 07:02:26;;;;;;;4.50;4.20;;;18.70;99.90;;;;;;5072445;28;20659;-66
2022/07/06 07:04:52;;;;;;;4.27;3.90;;;18.80;99.90;;;;;;5071995;28;20185;-65
2022/07/06 07:07:18;;;;;;;4.80;4.17;;;18.80;99.90;;;;;;5072490;28;20608;-66
2022/07/06 07:09:43;;;;;;;5.77;4.30;;;18.80;99.90;;;;;;5072304;28;20182;-66
2022/07/06 07:12:10;;;;;;;4.83;4.53;;;18.80;99.90;;;;;;5072059;28;20229;-65
2022/07/06 07:14:36;;;;;;;4.93;4.20;;;18.70;99.90;;;;;;5072004;28;20185;-66
2022/07/06 07:17:01;;;;;;;4.73;4.40;;;18.80;99.90;;;;;;5072253;28;20190;-66
2022/07/06 07:19:27;;;;;;;4.70;4.33;;;18.80;99.90;;;;;;5072022;28;20327;-66
2022/07/06 07:21:53;;;;;;;5.53;4.40;;;18.60;99.90;;;;;;5072033;28;20303;-66
2022/07/06 07:24:18;;;;;;;4.57;4.20;;;18.80;99.90;;;;;;5071607;28;20174;-66
2022/07/06 07:26:44;;;;;;;6.53;4.37;;;19.30;99.90;;;;;;5071940;28;20607;-66
2022/07/06 07:29:09;;;;;;;4.40;4.10;;;19.60;99.90;;;;;;5071340;28;20177;-65
2022/07/06 07:31:35;;;;;;;5.00;4.50;;;19.60;99.90;;;;;;5071835;28;20632;-66
2022/07/06 07:34:00;;;;;;;4.33;4.03;;;19.60;99.90;;;;;;5071203;28;20309;-66
2022/07/06 07:36:26;;;;;;;4.03;3.80;;;19.70;99.90;;;;;;5069852;28;20316;-66
2022/07/06 07:38:52;;;;;;;4.53;4.20;;;19.60;99.90;;;;;;5071468;28;20181;-67
2022/07/06 07:41:18;;;;;;;4.87;4.47;;;19.70;99.90;;;;;;5071693;28;20212;-66
2022/07/06 07:43:44;;;;;;;4.97;4.67;;;19.50;99.90;;;;;;5070976;28;20205;-66
2022/07/06 07:46:09;;;;;;;4.67;4.20;;;19.50;99.90;;;;;;5072102;28;20170;-66
2022/07/06 07:48:35;;;;;;;5.80;3.97;;;19.70;99.90;;;;;;5071282;28;20625;-66
2022/07/06 07:51:01;;;;;;;4.03;3.80;;;19.80;99.90;;;;;;5071356;28;20204;-66
2022/07/06 07:53:26;;;;;;;3.87;3.60;;;20.00;99.90;;;;;;5071704;28;20285;-67
2022/07/06 07:55:52;;;;;;;3.75;3.55;;;20.30;99.90;;;;;;5071662;28;20174;-67
2022/07/06 07:58:19;;;;;;;3.90;3.60;;;20.80;99.90;;;;;;5070016;28;20189;-67
2022/07/06 08:00:45;;;;;;;3.78;3.47;;;21.20;99.90;;;;;;5071549;28;20198;-67
2022/07/06 08:03:11;;;;;;;4.90;3.50;;;21.40;99.90;;;;;;5071398;28;20194;-66
2022/07/06 08:05:37;;;;;;;3.80;3.60;;;21.30;99.90;;;;;;5071201;28;20178;-67
2022/07/06 08:08:03;;;;;;;5.38;3.97;;;21.30;99.90;;;;;;5071420;28;20233;-66
2022/07/06 08:10:30;;;;;;;4.37;4.10;;;20.80;99.90;;;;;;5071196;28;20174;-67
2022/07/06 08:12:55;;;;;;;3.70;3.40;;;20.30;99.90;;;;;;5071365;28;20197;-66
2022/07/06 08:15:21;;;;;;;3.50;3.30;;;20.00;99.90;;;;;;5071102;28;20187;-66
2022/07/06 08:17:46;;;;;;;4.03;3.73;;;19.80;99.90;;;;;;5071119;28;20666;-67
2022/07/06 08:20:13;;;;;;;4.57;3.70;;;19.70;99.90;;;;;;5071081;28;20217;-66
2022/07/06 08:22:39;;;;;;;4.07;3.83;;;19.50;99.90;;;;;;5071341;28;20198;-66
2022/07/06 08:25:06;;;;;;;4.83;3.80;;;19.20;99.90;;;;;;5070286;28;20197;-66
2022/07/06 08:27:31;;;;;;;3.70;3.50;;;19.00;99.90;;;;;;5071513;28;20282;-67
2022/07/06 08:29:57;;;;;;;4.03;3.73;;;18.90;99.90;;;;;;5070593;28;20606;-67
2022/07/06 08:32:23;;;;;;;3.93;3.70;;;18.80;99.90;;;;;;5070971;28;20300;-66
2022/07/06 08:34:48;;;;;;;4.10;3.90;;;18.70;99.90;;;;;;5070557;28;20174;-66
2022/07/06 08:37:14;;;;;;;4.20;3.80;;;18.80;99.90;;;;;;5071221;28;20219;-67
2022/07/06 08:39:40;;;;;;;3.90;3.63;;;18.70;99.90;;;;;;5069834;28;20236;-66
2022/07/06 08:42:07;;;;;;;3.80;3.60;;;18.80;99.90;;;;;;5070573;28;20213;-67
2022/07/06 08:44:35;;;;;;;4.03;3.83;;;18.90;99.90;;;;;;5071092;28;20178;-66
2022/07/06 08:47:04;;;;;;;4.30;4.00;;;18.90;99.90;;;;;;5070618;28;20178;-67
2022/07/06 08:49:31;;;;;;;3.90;3.70;;;18.80;99.90;;;;;;5071110;28;20174;-67
2022/07/06 08:51:57;;;;;;;4.03;3.73;;;18.80;99.90;;;;;;5070733;28;20202;-67
2022/07/06 08:54:23;;;;;;;5.93;3.90;;;18.80;99.90;;;;;;5070752;28;20257;-67
2022/07/06 08:56:49;;;;;;;4.70;3.70;;;18.70;99.90;;;;;;5070650;28;20269;-67
2022/07/06 08:59:16;;;;;;;3.80;3.60;;;18.70;99.90;;;;;;5070991;28;20174;-67
2022/07/06 09:01:42;;;;;;;4.20;3.93;;;18.80;99.90;;;;;;5070713;28;20255;-66
2022/07/06 09:04:09;;;;;;;4.10;3.70;;;18.70;99.90;;;;;;5073123;28;20184;-67
2022/07/06 09:06:35;;;;;;;4.30;4.00;;;18.70;99.90;;;;;;5074542;28;20178;-66
2022/07/06 09:09:05;;;;;;;4.13;3.83;;;18.60;99.90;;;;;;5074493;28;20178;-66
2022/07/06 09:11:30;;;;;;;5.03;4.57;;;18.40;99.90;;;;;;5074285;28;20211;-67
2022/07/06 09:13:57;;;;;;;4.30;4.00;;;18.30;99.90;;;;;;5071999;28;20193;-67
2022/07/06 09:16:30;;;;;;;3.97;3.60;;;18.00;99.90;;;;;;5074621;28;20182;-66
2022/07/06 09:18:55;;;;;;;6.47;4.37;;;17.80;99.90;;;;;;5074208;28;20217;-67
2022/07/06 09:21:31;;;;;;;4.77;4.23;;;18.00;99.90;;;;;;5074458;28;20662;-67
2022/07/06 09:23:59;;;;;;;4.57;3.97;;;18.10;99.90;;;;;;5073733;28;20654;-67
2022/07/06 09:26:26;;;;;;;4.30;4.10;;;18.10;99.90;;;;;;5074472;28;20656;-66
2022/07/06 09:28:54;;;;;;;4.80;4.47;;;18.20;99.90;;;;;;5074040;28;20539;-67
2022/07/06 09:31:20;;;;;;;5.60;4.10;;;18.20;99.90;;;;;;5074362;28;20174;-67
2022/07/06 09:34:09;;;;;;;4.10;3.70;;;18.40;99.90;;;;;;5073605;28;20859;-67
2022/07/06 09:36:49;;;;;;;4.77;3.97;;;18.60;99.90;;;;;;5074462;28;20223;-66
2022/07/06 09:39:25;;;;;;;4.27;3.73;;;18.80;99.90;;;;;;5053533;28;20183;-66
2022/07/06 09:41:52;;;;;;;4.00;3.70;;;19.10;99.90;;;;;;5062867;28;20255;-67
2022/07/06 09:44:22;;;;;;;3.83;3.53;;;19.40;99.90;;;;;;5073585;28;20182;-66
2022/07/06 09:46:48;;;;;;;4.27;4.00;;;19.90;99.90;;;;;;5074017;28;20170;-66
2022/07/06 09:49:20;;;;;;;4.10;3.90;;;20.20;99.90;;;;;;5072490;28;20547;-66
2022/07/06 09:51:56;;;;;;;8.10;3.53;;;20.50;99.90;;;;;;5073861;28;20174;-66
2022/07/06 09:54:22;;;;;;;4.43;3.97;;;21.00;99.90;;;;;;5073443;28;20220;-67
2022/07/06 09:56:51;;;;;;;3.70;3.40;;;21.40;99.90;;;;;;5073812;28;20182;-65
2022/07/06 09:59:18;;;;;;;4.00;3.30;;;21.80;99.90;;;;;;5073327;28;20244;-66
2022/07/06 10:01:44;;;;;;;3.70;3.50;;;22.10;99.90;;;;;;5073626;28;20202;-64
2022/07/06 10:04:12;;;;;;;3.70;3.40;;;22.40;99.90;;;;;;5074225;28;20194;-65
2022/07/06 10:06:39;;;;;;;4.53;3.25;;;22.70;99.90;;;;;;5075334;28;20173;-65
2022/07/06 10:09:07;;;;;;;3.42;3.20;;;22.60;99.90;;;;;;5074727;28;20213;-65
2022/07/06 10:11:37;;;;;;;3.38;3.08;;;22.70;99.90;;;;;;5073824;28;20200;-65
2022/07/06 10:14:05;;;;;;;3.70;3.40;;;23.00;99.90;;;;;;5072816;28;20220;-65
2022/07/06 10:16:31;;;;;;;3.45;3.20;;;23.10;99.90;;;;;;5073520;28;20639;-65
2022/07/06 10:18:58;;;;;;;2.97;2.80;;;23.20;99.90;;;;;;5071921;28;20174;-66
2022/07/06 10:21:24;;;;;;;3.47;2.60;;;23.60;99.90;;;;;;5073499;28;20202;-65
2022/07/06 10:23:51;;;;;;;3.38;3.05;;;23.70;99.90;;;;;;5072840;28;20252;-66
2022/07/06 10:26:18;;;;;;;3.05;2.85;;;23.90;99.90;;;;;;5073171;28;20182;-66
2022/07/06 10:28:46;;;;;;;3.20;2.90;;;24.40;99.90;;;;;;5073160;28;20170;-66
2022/07/06 10:31:14;;;;;;;3.30;3.00;;;24.90;99.90;;;;;;5072996;28;20178;-66
2022/07/06 10:33:42;;;;;;;2.90;2.70;;;25.30;99.90;;;;;;5073471;28;20209;-66
2022/07/06 10:36:08;;;;;;;3.28;3.08;;;25.20;99.90;;;;;;5073122;28;20616;-66
2022/07/06 10:38:35;;;;;;;2.80;2.70;;;25.00;99.90;;;;;;5071928;28;20182;-65
2022/07/06 10:41:06;;;;;;;2.70;2.60;;;24.90;99.90;;;;;;5072788;28;20339;-66
2022/07/06 10:43:43;;;;;;;4.18;3.10;;;25.20;99.90;;;;;;5072508;28;20194;-66
2022/07/06 10:46:13;;;;;;;3.42;3.13;;;25.50;99.90;;;;;;5072901;28;20261;-66
2022/07/06 10:48:44;;;;;;;3.63;2.90;;;25.70;99.90;;;;;;5072698;28;20174;-65
2022/07/06 10:51:32;;;;;;;3.10;2.90;;;26.00;99.90;;;;;;5072476;28;20178;-66
2022/07/06 10:54:03;;;;;;;4.53;3.20;;;26.30;99.90;;;;;;5072027;28;20556;-65
2022/07/06 10:56:43;;;;;;;3.58;3.38;;;26.00;99.90;;;;;;5072822;28;20594;-66
2022/07/06 10:59:11;;;;;;;2.95;2.80;;;25.40;99.90;;;;;;5072593;28;20584;-65
2022/07/06 11:01:37;;;;;;;4.13;3.47;;;25.00;99.90;;;;;;5072527;28;20326;-66
2022/07/06 11:04:03;;;;;;;3.00;2.80;;;24.90;99.90;;;;;;5071852;28;20182;-65
2022/07/06 11:06:32;;;;;;;4.13;3.72;;;24.50;99.90;;;;;;5072413;28;20166;-65
2022/07/06 11:08:59;;;;;;;3.50;3.30;;;24.10;99.90;;;;;;5072138;28;20174;-65
2022/07/06 11:11:35;;;;;;;3.25;3.08;;;23.90;99.90;;;;;;5072513;28;20182;-65
2022/07/06 11:14:03;;;;;;;3.60;3.30;;;24.00;99.90;;;;;;5069305;28;20182;-65
2022/07/06 11:16:34;;;;;;;3.55;3.35;;;24.00;99.90;;;;;;5072311;28;20174;-65
2022/07/06 11:19:11;;;;;;;3.20;3.00;;;23.70;99.90;;;;;;5071909;28;20261;-65
2022/07/06 11:21:43;;;;;;;4.82;3.38;;;23.50;99.90;;;;;;5072132;28;20259;-65
2022/07/06 11:24:14;;;;;;;3.38;3.22;;;23.60;99.90;;;;;;5070201;28;20180;-65
2022/07/06 11:26:41;;;;;;;3.65;3.45;;;23.80;99.90;;;;;;5071686;28;20166;-65
2022/07/06 11:29:09;;;;;;;3.53;3.20;;;24.00;99.90;;;;;;5071523;28;20178;-65
2022/07/06 11:31:37;;;;;;;2.88;2.70;;;24.10;99.90;;;;;;5071946;28;20184;-65
2022/07/06 11:34:08;;;;;;;3.85;3.55;;;24.50;99.90;;;;;;5071343;28;20216;-66
2022/07/06 11:36:34;;;;;;;4.35;3.10;;;24.80;99.90;;;;;;5071741;28;20236;-65
2022/07/06 11:39:00;;;;;;;3.30;3.08;;;24.90;99.90;;;;;;5071805;28;20192;-65
2022/07/06 11:41:26;;;;;;;3.78;3.58;;;24.90;99.90;;;;;;5071496;28;20216;-65
2022/07/06 11:43:52;;;;;;;3.78;3.47;;;24.80;99.90;;;;;;5071619;28;20190;-65
2022/07/06 11:46:28;;;;;;;3.50;3.30;;;24.60;99.90;;;;;;5071771;28;20173;-65
2022/07/06 11:49:08;;;;;;;3.15;2.95;;;24.50;99.90;;;;;;5071697;28;20170;-65
2022/07/06 11:51:37;;;;;;;4.10;3.58;;;24.40;99.90;;;;;;5071615;28;20166;-65
2022/07/06 11:54:19;;;;;;;3.30;3.10;;;24.30;99.90;;;;;;5071296;28;20182;-65
2022/07/06 11:57:07;;;;;;;3.42;3.05;;;24.80;99.90;;;;;;5071139;28;20174;-65
2022/07/06 11:59:38;;;;;;;3.50;3.30;;;25.10;99.90;;;;;;5071611;28;20576;-65
2022/07/06 12:02:12;;;;;;;3.58;3.38;;;25.20;99.90;;;;;;5071104;28;20217;-65
2022/07/06 12:04:41;;;;;;;3.58;3.28;;;25.20;99.90;;;;;;5071322;28;20165;-64
2022/07/06 12:07:08;;;;;;;4.68;3.50;;;25.10;99.90;;;;;;5071128;28;20174;-64
2022/07/06 12:09:37;;;;;;;3.40;3.20;;;25.00;99.90;;;;;;5071661;28;20174;-65
2022/07/06 12:12:03;;;;;;;4.00;3.70;;;24.70;99.90;;;;;;5071070;28;20225;-65
2022/07/06 12:14:30;;;;;;;3.40;3.20;;;24.60;99.90;;;;;;5069924;28;20253;-66
2022/07/06 12:17:02;;;;;;;4.25;3.63;;;24.50;99.90;;;;;;5071204;28;20232;-65
2022/07/06 12:19:27;;;;;;;4.13;3.20;;;24.10;99.90;;;;;;5071274;28;20177;-64
2022/07/06 12:21:53;;;;;;;3.88;3.53;;;23.80;99.90;;;;;;5070689;28;20210;-65
2022/07/06 12:24:31;;;;;;;3.60;3.40;;;23.60;99.90;;;;;;5071035;28;20206;-65
2022/07/06 12:26:57;;;;;;;4.30;3.72;;;23.60;99.90;;;;;;5071099;28;20162;-64
2022/07/06 12:29:23;;;;;;;3.40;3.20;;;23.80;99.90;;;;;;5071289;28;20643;-65
2022/07/06 12:31:53;;;;;;;3.58;3.38;;;23.80;99.90;;;;;;5070785;28;20170;-65
2022/07/06 12:34:24;;;;;;;3.13;3.03;;;24.10;99.90;;;;;;5071403;28;20185;-65
2022/07/06 12:36:58;;;;;;;3.85;3.38;;;24.40;99.90;;;;;;5073017;28;20188;-65
2022/07/06 12:39:28;;;;;;;3.70;3.50;;;24.50;99.90;;;;;;5074705;28;20173;-64
2022/07/06 12:42:02;;;;;;;5.43;3.35;;;24.60;99.90;;;;;;5074858;28;20251;-65
2022/07/06 12:44:29;;;;;;;3.78;3.17;;;24.80;99.90;;;;;;5075096;28;20543;-65
2022/07/06 12:47:06;;;;;;;6.65;3.58;;;24.80;99.90;;;;;;5075156;28;20177;-66
2022/07/06 12:49:33;;;;;;;3.55;3.35;;;24.90;99.90;;;;;;5075179;28;20166;-64